createdAt,value
2024-03-12T00:09:37.405Z,39.65
2024-03-12T00:19:39.509Z,39.55
2024-03-12T00:29:42.865Z,38.50
2024-03-12T00:39:44.962Z,38.28
2024-03-12T00:49:48.365Z,37.05
2024-03-12T00:59:50.351Z,33.63
2024-03-12T01:09:53.939Z,35.33
2024-03-12T01:19:56.188Z,33.72
2024-03-12T01:29:59.553Z,34.53
2024-03-12T01:40:01.900Z,32.65
2024-03-12T01:50:06.916Z,30.95
2024-03-12T02:00:10.076Z,33.92
2024-03-12T02:10:14.565Z,27.92
2024-03-12T02:20:16.553Z,31.80
2024-03-12T02:30:20.254Z,28.52
2024-03-12T02:40:22.520Z,27.17
2024-03-12T02:50:25.947Z,25.70
2024-03-12T03:00:27.966Z,26.83
2024-03-12T03:10:31.369Z,25.30
2024-03-12T03:20:33.378Z,23.00
2024-03-12T03:30:36.765Z,23.30
2024-03-12T03:40:38.839Z,23.65
2024-03-12T03:50:42.165Z,25.98
2024-03-12T04:00:44.265Z,24.85
2024-03-12T04:10:47.686Z,20.92
2024-03-12T04:20:49.766Z,22.92
2024-03-12T04:30:53.199Z,22.10
2024-03-12T04:40:55.221Z,18.83
2024-03-12T04:50:58.744Z,19.73
2024-03-12T05:01:00.802Z,19.08
2024-03-12T05:11:04.699Z,18.48
2024-03-12T05:21:06.701Z,17.90
2024-03-12T05:31:10.959Z,17.33
2024-03-12T05:41:13.040Z,17.55
2024-03-12T05:51:16.491Z,18.42
2024-03-12T06:01:18.825Z,17.38
2024-03-12T06:11:22.324Z,15.77
2024-03-12T06:21:24.400Z,17.83
2024-03-12T06:31:27.766Z,17.30
2024-03-12T06:41:29.765Z,14.75
2024-03-12T06:51:33.197Z,12.35
2024-03-12T07:01:35.452Z,10.63
2024-03-12T07:11:38.937Z,7.35
2024-03-12T07:21:40.975Z,8.63
2024-03-12T07:31:44.552Z,7.90
2024-03-12T07:41:46.546Z,8.27
2024-03-12T07:51:50.374Z,8.02
2024-03-12T08:01:52.820Z,7.90
2024-03-12T08:11:56.220Z,8.20
2024-03-12T08:21:58.459Z,6.45
2024-03-12T08:32:02.201Z,6.18
2024-03-12T08:42:04.713Z,3.50
2024-03-12T08:52:08.243Z,2.97
2024-03-12T09:02:10.402Z,2.95
2024-03-12T09:12:13.879Z,2.47
2024-03-12T09:22:16.010Z,1.80
2024-03-12T09:32:19.473Z,2.15
2024-03-12T09:42:25.932Z,1.10
2024-03-12T09:52:29.641Z,1.00
2024-03-12T10:02:31.639Z,0.65
2024-03-12T10:12:35.156Z,0.90
2024-03-12T10:22:37.208Z,1.00
2024-03-12T10:32:40.671Z,0.80
2024-03-12T10:42:51.132Z,1.00
2024-03-12T10:52:57.338Z,0.73
2024-03-12T11:03:00.235Z,0.70
2024-03-12T11:13:04.610Z,0.73
2024-03-12T11:23:06.937Z,0.82
2024-03-12T11:33:10.360Z,0.70
2024-03-12T11:43:12.805Z,0.90
2024-03-12T11:53:17.712Z,1.45
2024-03-12T12:03:19.730Z,1.00
2024-03-12T12:13:23.270Z,0.90
2024-03-12T12:23:25.833Z,1.00
2024-03-12T12:33:30.844Z,0.93
2024-03-12T12:43:33.967Z,0.80
2024-03-12T12:53:37.396Z,1.00
2024-03-12T13:03:40.638Z,0.80
2024-03-12T13:13:45.854Z,1.00
2024-03-12T13:23:50.060Z,0.85
2024-03-12T13:33:55.980Z,0.98
2024-03-12T13:43:57.950Z,2.38
2024-03-12T13:54:04.246Z,2.72
2024-03-12T14:04:06.504Z,2.42
2024-03-12T14:14:10.414Z,2.20
2024-03-12T14:24:14.895Z,2.85
2024-03-12T14:34:20.890Z,2.35
2024-03-12T14:44:22.998Z,3.38
2024-03-12T14:54:26.652Z,3.25
2024-03-12T15:04:33.136Z,2.92
2024-03-12T15:14:37.229Z,2.85
2024-03-12T15:24:40.144Z,2.67
2024-03-12T15:34:43.783Z,3.05
2024-03-12T15:44:46.163Z,4.38
2024-03-12T15:54:50.215Z,2.97
2024-03-12T16:04:52.770Z,2.40
2024-03-12T16:14:59.338Z,2.70
2024-03-12T16:25:01.397Z,2.60
2024-03-12T16:35:07.497Z,4.90
2024-03-12T16:45:10.101Z,2.33
2024-03-12T16:55:14.866Z,3.10
2024-03-12T17:05:22.556Z,5.55
2024-03-12T17:15:28.281Z,3.90
2024-03-12T17:25:30.851Z,3.85
2024-03-12T17:35:37.329Z,4.00
2024-03-12T17:45:39.661Z,5.28
2024-03-12T17:55:43.785Z,6.45
2024-03-12T18:05:46.285Z,4.47
2024-03-12T18:15:49.755Z,5.47
2024-03-12T18:25:51.745Z,5.10
2024-03-12T18:35:56.287Z,5.45
2024-03-12T18:45:58.402Z,7.40
2024-03-12T18:56:03.235Z,5.70
2024-03-12T19:06:18.338Z,6.35
2024-03-12T19:16:26.698Z,5.97
2024-03-12T19:26:28.818Z,7.60
2024-03-12T19:36:36.388Z,6.57
2024-03-12T19:46:39.106Z,5.57
2024-03-12T19:56:42.596Z,5.38
2024-03-12T20:06:45.359Z,5.50
2024-03-12T20:16:48.938Z,5.40
2024-03-12T20:26:50.955Z,6.20
2024-03-12T20:36:54.364Z,4.97
2024-03-12T20:47:03.575Z,4.93
2024-03-12T20:57:05.806Z,4.30
2024-03-12T21:07:09.374Z,3.15
2024-03-12T21:17:11.461Z,3.15
2024-03-12T21:27:14.818Z,2.80
2024-03-12T21:37:16.971Z,3.85
2024-03-12T21:47:20.463Z,5.50
2024-03-12T21:57:22.500Z,3.83
2024-03-12T22:07:25.901Z,3.92
2024-03-12T22:17:27.973Z,4.78
2024-03-12T22:27:31.417Z,3.83
2024-03-12T22:37:33.993Z,4.68
2024-03-12T22:47:38.119Z,3.78
2024-03-12T22:57:40.570Z,4.10
2024-03-12T23:07:44.493Z,5.60
2024-03-12T23:17:46.522Z,4.97
2024-03-12T23:27:50.222Z,5.72
2024-03-12T23:37:52.444Z,4.47
2024-03-12T23:47:55.912Z,7.18
2024-03-12T23:57:58.042Z,4.00
